Time,TemperatureF,DewpointF,PressureIn,WindDirection,WindDirectionDegrees,WindSpeedMPH,WindSpeedGustMPH,Humidity,HourlyPrecipIn,Conditions,Clouds,dailyrainin,SoftwareType,DateUTC
2013-03-04 00:00:00,32.4,32.1,29.38,South,180,10.4,10.4,99,0.00,CLR,SCT,0.00,WeatherDisplay:10.37,2013-03-04 05:00:00,
2013-03-04 00:05:00,32.4,32.1,29.38,South,180,11.5,11.5,99,0.00,CLR,SCT,0.00,WeatherDisplay:10.37,2013-03-04 05:05:00,
2013-03-04 00:10:00,32.4,32.1,29.38,SW,225,9.2,9.2,99,0.00,CLR,SCT,0.00,WeatherDisplay:10.37,2013-03-04 05:10:00,
2013-03-04 00:15:00,32.4,32.1,29.38,West,270,8.1,8.1,99,0.00,CLR,SCT,0.00,WeatherDisplay:10.37,2013-03-04 05:15:00,
2013-03-04 00:20:00,32.4,32.1,29.38,North,0,8.1,8.1,99,0.00,CLR,SCT,0.00,WeatherDisplay:10.37,2013-03-04 05:20:00,
2013-03-04 00:25:00,32.4,32.1,29.38,SW,225,8.1,8.1,99,0.00,CLR,SCT,0.00,WeatherDisplay:10.37,2013-03-04 05:25:00,
2013-03-04 00:30:00,32.4,32.1,29.38,South,180,8.3,8.3,99,0.00,CLR,SCT,0.00,WeatherDisplay:10.37,2013-03-04 05:30:00,
2013-03-04 00:35:00,32.4,32.1,29.38,SW,225,5.8,5.8,99,0.00,CLR,SCT,0.00,WeatherDisplay:10.37,2013-03-04 05:35:00,
2013-03-04 00:40:00,32.4,32.1,29.38,South,180,10.4,10.4,99,0.00,CLR,SCT,0.00,WeatherDisplay:10.37,2013-03-04 05:40:00,
2013-03-04 00:45:00,32.4,32.1,29.38,SW,225,9.2,9.2,99,0.00,CLR,SCT,0.00,WeatherDisplay:10.37,2013-03-04 05:45:00,
2013-03-04 00:50:00,32.4,32.1,29.38,SW,225,6.9,6.9,99,0.00,CLR,SCT,0.00,WeatherDisplay:10.37,2013-03-04 05:50:00,
2013-03-04 00:55:00,32.5,32.3,29.38,South,180,9.2,9.2,99,0.00,CLR,SCT,0.00,WeatherDisplay:10.37,2013-03-04 05:55:00,
2013-03-04 01:00:00,32.5,32.3,29.38,South,180,8.1,8.1,99,0.00,CLR,SCT,0.00,WeatherDisplay:10.37,2013-03-04 06:00:00,
2013-03-04 01:05:00,32.5,32.3,29.38,South,180,5.8,5.8,99,0.00,CLR,SCT,0.00,WeatherDisplay:10.37,2013-03-04 06:05:00,
2013-03-04 01:10:00,32.5,32.3,29.38,West,270,5.8,5.8,99,0.00,CLR,SCT,0.00,WeatherDisplay:10.37,2013-03-04 06:10:00,
2013-03-04 01:15:00,32.5,32.3,29.39,South,180,5.8,5.8,99,0.00,CLR,SCT,0.00,WeatherDisplay:10.37,2013-03-04 06:15:00,
2013-03-04 01:20:00,32.5,32.3,29.38,SSW,202,6.9,6.9,99,0.00,CLR,SCT,0.00,WeatherDisplay:10.37,2013-03-04 06:20:00,
2013-03-04 01:25:00,32.5,31.8,29.38,SW,225,9.2,9.2,97,0.00,CLR,SCT,0.00,WeatherDisplay:10.37,2013-03-04 06:25:00,
2013-03-04 01:30:00,32.5,31.3,29.38,South,180,8.1,8.1,95,0.00,CLR,SCT,0.00,WeatherDisplay:10.37,2013-03-04 06:30:00,
2013-03-04 01:35:00,32.7,30.9,29.38,South,180,12.7,12.7,93,0.00,CLR,SCT,0.00,WeatherDisplay:10.37,2013-03-04 06:35:00,
2013-03-04 01:40:00,32.7,30.7,29.38,South,180,9.2,9.2,92,0.00,CLR,SCT,0.00,WeatherDisplay:10.37,2013-03-04 06:40:00,
2013-03-04 01:45:00,32.7,30.7,29.38,South,180,10.4,10.4,92,0.00,CLR,SCT,0.00,WeatherDisplay:10.37,2013-03-04 06:45:00,
2013-03-04 01:50:00,32.7,30.4,29.38,South,180,10.4,10.4,91,0.00,CLR,SCT,0.00,WeatherDisplay:10.37,2013-03-04 06:50:00,
2013-03-04 01:55:00,32.7,30.1,29.38,SW,225,10.4,10.4,90,0.00,CLR,SCT,0.00,WeatherDisplay:10.37,2013-03-04 06:55:00,
2013-03-04 02:00:00,32.5,29.9,29.38,SW,225,10.4,10.4,90,0.00,CLR,SCT,0.00,WeatherDisplay:10.37,2013-03-04 07:00:00,
2013-03-04 02:05:00,32.7,30.1,29.38,South,180,9.2,9.2,90,0.00,CLR,SCT,0.00,WeatherDisplay:10.37,2013-03-04 07:05:00,
2013-03-04 02:10:00,32.5,29.7,29.38,South,180,10.4,10.4,89,0.00,CLR,SCT,0.00,WeatherDisplay:10.37,2013-03-04 07:10:00,
2013-03-04 02:15:00,32.5,29.7,29.38,SW,225,10.4,10.4,89,0.00,CLR,SCT,0.00,WeatherDisplay:10.37,2013-03-04 07:15:00,
2013-03-04 02:20:00,32.5,29.7,29.39,SW,225,5.8,5.8,89,0.00,CLR,SCT,0.00,WeatherDisplay:10.37,2013-03-04 07:20:00,
2013-03-04 02:25:00,32.5,29.4,29.38,SE,135,12.7,12.7,88,0.00,CLR,SCT,0.00,WeatherDisplay:10.37,2013-03-04 07:25:00,
2013-03-04 02:30:00,32.4,29.2,29.38,South,180,8.1,8.1,88,0.00,CLR,SCT,0.00,WeatherDisplay:10.37,2013-03-04 07:30:00,
2013-03-04 02:35:00,32.4,29.2,29.38,South,180,5.8,5.8,88,0.00,CLR,SCT,0.00,WeatherDisplay:10.37,2013-03-04 07:35:00,
2013-03-04 02:40:00,32.2,29.0,29.38,South,180,10.4,10.4,88,0.00,CLR,SCT,0.00,WeatherDisplay:10.37,2013-03-04 07:40:00,
2013-03-04 02:45:00,32.2,28.7,29.38,South,180,9.2,9.2,87,0.00,CLR,SCT,0.00,WeatherDisplay:10.37,2013-03-04 07:45:00,
2013-03-04 02:51:00,32.2,29.0,29.38,SW,225,11.5,11.5,88,0.00,CLR,SCT,0.00,WeatherDisplay:10.37,2013-03-04 07:51:00,
2013-03-04 02:56:00,32.0,28.6,29.38,SW,225,8.1,8.1,87,0.00,CLR,SCT,0.00,WeatherDisplay:10.37,2013-03-04 07:56:00,
2013-03-04 03:01:00,32.0,28.6,29.38,SW,225,4.6,4.6,87,0.00,CLR,SCT,0.00,WeatherDisplay:10.37,2013-03-04 08:01:00,
2013-03-04 03:06:00,32.0,28.6,29.38,South,180,8.1,8.1,87,0.00,CLR,SCT,0.00,WeatherDisplay:10.37,2013-03-04 08:06:00,
2013-03-04 03:11:00,32.0,28.6,29.39,SW,225,9.2,9.2,87,0.00,CLR,SCT,0.00,WeatherDisplay:10.37,2013-03-04 08:11:00,
2013-03-04 03:16:00,32.0,28.3,29.39,South,180,9.2,9.2,86,0.00,CLR,SCT,0.00,WeatherDisplay:10.37,2013-03-04 08:16:00,
2013-03-04 03:21:00,32.0,28.3,29.39,South,180,9.2,9.2,86,0.00,CLR,SCT,0.00,WeatherDisplay:10.37,2013-03-04 08:21:00,
2013-03-04 03:26:00,31.6,27.6,29.39,SW,225,10.4,10.4,85,0.00,CLR,SCT,0.00,WeatherDisplay:10.37,2013-03-04 08:26:00,
2013-03-04 03:31:00,31.6,27.6,29.39,West,270,8.1,8.1,85,0.00,CLR,SCT,0.00,WeatherDisplay:10.37,2013-03-04 08:31:00,
2013-03-04 03:36:00,31.5,27.5,29.39,South,180,6.9,6.9,85,0.00,CLR,SCT,0.00,WeatherDisplay:10.37,2013-03-04 08:36:00,
2013-03-04 03:41:00,31.5,27.5,29.40,South,180,8.1,8.1,85,0.00,CLR,SCT,0.00,WeatherDisplay:10.37,2013-03-04 08:41:00,
2013-03-04 03:46:00,31.3,27.0,29.39,SW,225,9.2,9.2,84,0.00,CLR,SCT,0.00,WeatherDisplay:10.37,2013-03-04 08:46:00,
2013-03-04 03:51:00,31.3,27.0,29.39,SE,135,8.1,8.1,84,0.00,CLR,SCT,0.00,WeatherDisplay:10.37,2013-03-04 08:51:00,
2013-03-04 03:56:00,31.3,27.0,29.39,South,180,8.1,8.1,84,0.00,CLR,SCT,0.00,WeatherDisplay:10.37,2013-03-04 08:56:00,
2013-03-04 04:01:00,31.1,26.8,29.40,SW,225,10.4,10.4,84,0.00,CLR,SCT,0.00,WeatherDisplay:10.37,2013-03-04 09:01:00,
2013-03-04 04:06:00,31.1,26.8,29.40,West,270,5.8,5.8,84,0.00,CLR,SCT,0.00,WeatherDisplay:10.37,2013-03-04 09:06:00,
2013-03-04 04:11:00,31.1,26.8,29.40,South,180,5.8,5.8,84,0.00,CLR,SCT,0.00,WeatherDisplay:10.37,2013-03-04 09:11:00,
2013-03-04 04:16:00,31.1,26.8,29.40,West,270,5.8,5.8,84,0.00,CLR,SCT,0.00,WeatherDisplay:10.37,2013-03-04 09:16:00,
2013-03-04 04:21:00,31.1,26.8,29.40,West,270,10.4,10.4,84,0.00,CLR,SCT,0.00,WeatherDisplay:10.37,2013-03-04 09:21:00,
2013-03-04 04:26:00,30.9,26.7,29.40,SW,225,8.1,8.1,84,0.00,CLR,SCT,0.00,WeatherDisplay:10.37,2013-03-04 09:26:00,
2013-03-04 04:31:00,30.7,26.5,29.40,SW,225,9.2,9.2,84,0.00,CLR,SCT,0.00,WeatherDisplay:10.37,2013-03-04 09:31:00,
2013-03-04 04:36:00,30.6,26.3,29.41,South,180,8.1,8.1,84,0.00,CLR,SCT,0.00,WeatherDisplay:10.37,2013-03-04 09:36:00,
2013-03-04 04:41:00,30.4,26.1,29.40,South,180,6.9,6.9,84,0.00,CLR,SCT,0.00,WeatherDisplay:10.37,2013-03-04 09:41:00,
2013-03-04 04:46:00,30.4,26.1,29.40,South,180,5.8,5.8,84,0.00,CLR,SCT,0.00,WeatherDisplay:10.37,2013-03-04 09:46:00,
2013-03-04 04:51:00,30.2,25.9,29.41,SW,225,12.7,12.7,84,0.00,CLR,SCT,0.00,WeatherDisplay:10.37,2013-03-04 09:51:00,
2013-03-04 04:56:00,30.0,25.8,29.41,South,180,3.5,4.5,84,0.00,CLR,SCT,0.00,WeatherDisplay:10.37,2013-03-04 09:56:00,
2013-03-04 05:01:00,30.0,25.8,29.41,South,180,5.8,5.8,84,0.00,CLR,SCT,0.00,WeatherDisplay:10.37,2013-03-04 10:01:00,
2013-03-04 05:06:00,30.0,25.8,29.41,South,180,5.8,5.8,84,0.00,CLR,SCT,0.00,WeatherDisplay:10.37,2013-03-04 10:06:00,
2013-03-04 05:11:00,29.8,25.9,29.41,SW,225,10.4,10.4,85,0.00,CLR,SCT,0.00,WeatherDisplay:10.37,2013-03-04 10:11:00,
2013-03-04 05:16:00,29.8,25.9,29.41,South,180,10.4,10.4,85,0.00,CLR,SCT,0.00,WeatherDisplay:10.37,2013-03-04 10:16:00,
2013-03-04 05:21:00,29.8,25.9,29.41,South,180,8.1,8.1,85,0.00,CLR,SCT,0.00,WeatherDisplay:10.37,2013-03-04 10:21:00,
2013-03-04 05:26:00,29.7,25.7,29.41,South,180,17.3,17.3,85,0.00,CLR,SCT,0.00,WeatherDisplay:10.37,2013-03-04 10:26:00,
2013-03-04 05:31:00,29.7,25.7,29.41,SE,135,10.4,10.4,85,0.00,CLR,SCT,0.00,WeatherDisplay:10.37,2013-03-04 10:31:00,
2013-03-04 05:36:00,29.5,25.5,29.41,SSW,202,12.7,12.7,85,0.00,CLR,SCT,0.00,WeatherDisplay:10.37,2013-03-04 10:36:00,
2013-03-04 05:41:00,29.5,25.2,29.41,South,180,10.4,10.4,84,0.00,CLR,SCT,0.00,WeatherDisplay:10.37,2013-03-04 10:41:00,
2013-03-04 05:46:00,29.5,25.2,29.42,South,180,9.2,9.2,84,0.00,CLR,SCT,0.00,WeatherDisplay:10.37,2013-03-04 10:46:00,
2013-03-04 05:51:00,29.3,25.4,29.41,South,180,10.4,10.4,85,0.00,CLR,SCT,0.00,WeatherDisplay:10.37,2013-03-04 10:51:00,
2013-03-04 05:56:00,29.3,25.4,29.41,SW,225,12.7,12.7,85,0.00,CLR,SCT,0.00,WeatherDisplay:10.37,2013-03-04 10:56:00,
2013-03-04 06:01:00,29.3,25.1,29.41,South,180,12.7,12.7,84,0.00,CLR,SCT,0.00,WeatherDisplay:10.37,2013-03-04 11:01:00,
2013-03-04 06:06:00,29.3,25.1,29.41,South,180,8.1,8.1,84,0.00,CLR,SCT,0.00,WeatherDisplay:10.37,2013-03-04 11:06:00,
2013-03-04 06:11:00,29.5,25.5,29.41,South,180,8.1,8.1,85,0.00,CLR,SCT,0.00,WeatherDisplay:10.37,2013-03-04 11:11:00,
2013-03-04 06:16:00,29.5,25.5,29.41,SW,225,8.1,8.1,85,0.00,CLR,SCT,0.00,WeatherDisplay:10.37,2013-03-04 11:16:00,
2013-03-04 06:21:00,29.5,25.5,29.41,South,180,11.5,11.5,85,0.00,CLR,SCT,0.00,WeatherDisplay:10.37,2013-03-04 11:21:00,
2013-03-04 06:26:00,29.5,25.5,29.41,WSW,248,11.5,11.5,85,0.00,CLR,SCT,0.00,WeatherDisplay:10.37,2013-03-04 11:26:00,
2013-03-04 06:31:00,29.5,25.5,29.41,NW,315,10.4,10.4,85,0.00,CLR,SCT,0.00,WeatherDisplay:10.37,2013-03-04 11:31:00,
2013-03-04 06:36:00,29.5,25.5,29.42,SW,225,13.8,13.8,85,0.00,CLR,SCT,0.00,WeatherDisplay:10.37,2013-03-04 11:36:00,
2013-03-04 06:41:00,29.5,25.2,29.42,South,180,11.5,11.5,84,0.00,CLR,SCT,0.00,WeatherDisplay:10.37,2013-03-04 11:41:00,
2013-03-04 06:46:00,29.7,25.1,29.42,SW,225,15.0,15.0,83,0.00,CLR,SCT,0.00,WeatherDisplay:10.37,2013-03-04 11:46:00,
2013-03-04 06:51:00,29.8,25.0,29.42,SW,225,15.0,15.0,82,0.00,CLR,SCT,0.00,WeatherDisplay:10.37,2013-03-04 11:51:00,
2013-03-04 06:56:00,30.2,25.4,29.43,SW,225,15.0,15.0,82,0.00,CLR,SCT,0.00,WeatherDisplay:10.37,2013-03-04 11:56:00,
2013-03-04 07:01:00,30.6,25.1,29.42,SW,225,9.2,9.2,80,0.00,CLR,SCT,0.00,WeatherDisplay:10.37,2013-03-04 12:01:00,
2013-03-04 07:06:00,30.9,25.2,29.42,SW,225,13.8,13.8,79,0.00,CLR,SCT,0.00,WeatherDisplay:10.37,2013-03-04 12:06:00,
2013-03-04 07:11:00,30.9,25.5,29.42,NNW,338,12.7,12.7,80,0.00,CLR,SCT,0.00,WeatherDisplay:10.37,2013-03-04 12:11:00,
2013-03-04 07:17:00,31.3,25.5,29.42,SW,225,6.9,6.9,79,0.00,CLR,SCT,0.00,WeatherDisplay:10.37,2013-03-04 12:17:00,
2013-03-04 07:22:00,31.1,25.0,29.42,South,180,10.4,10.4,78,0.00,CLR,SCT,0.00,WeatherDisplay:10.37,2013-03-04 12:22:00,
2013-03-04 07:27:00,30.9,24.6,29.42,SW,225,12.7,12.7,77,0.00,CLR,SCT,0.00,WeatherDisplay:10.37,2013-03-04 12:27:00,
2013-03-04 07:32:00,30.7,24.4,29.43,South,180,12.7,12.7,77,0.00,CLR,SCT,0.00,WeatherDisplay:10.37,2013-03-04 12:32:00,
2013-03-04 07:37:00,30.9,24.9,29.43,SE,135,8.1,8.1,78,0.00,CLR,SCT,0.00,WeatherDisplay:10.37,2013-03-04 12:37:00,
2013-03-04 07:42:00,31.3,24.6,29.43,SW,225,15.0,15.0,76,0.00,CLR,SCT,0.00,WeatherDisplay:10.37,2013-03-04 12:42:00,
2013-03-04 07:47:00,31.6,24.9,29.43,West,270,6.9,6.9,76,0.00,CLR,SCT,0.00,WeatherDisplay:10.37,2013-03-04 12:47:00,
2013-03-04 07:52:00,31.8,25.1,29.43,SW,225,9.2,9.2,76,0.00,CLR,SCT,0.00,WeatherDisplay:10.37,2013-03-04 12:52:00,
2013-03-04 07:57:00,32.0,25.0,29.43,SW,225,10.4,10.4,75,0.00,CLR,SCT,0.00,WeatherDisplay:10.37,2013-03-04 12:57:00,
2013-03-04 08:02:00,32.5,25.2,29.43,SW,225,8.1,8.1,74,0.00,CLR,SCT,0.00,WeatherDisplay:10.37,2013-03-04 13:02:00,
2013-03-04 08:07:00,33.1,25.4,29.42,NW,315,10.4,10.4,73,0.00,CLR,SCT,0.00,WeatherDisplay:10.37,2013-03-04 13:07:00,
2013-03-04 08:12:00,33.4,25.0,29.43,SW,225,16.1,16.1,71,0.00,CLR,SCT,0.00,WeatherDisplay:10.37,2013-03-04 13:12:00,
2013-03-04 08:17:00,33.3,24.9,29.42,SW,225,9.2,9.2,71,0.00,CLR,SCT,0.00,WeatherDisplay:10.37,2013-03-04 13:17:00,
2013-03-04 08:22:00,33.4,25.0,29.42,SW,225,12.7,12.7,71,0.00,CLR,SCT,0.00,WeatherDisplay:10.37,2013-03-04 13:22:00,
2013-03-04 08:27:00,33.8,25.4,29.42,SE,135,17.3,17.3,71,0.00,CLR,SCT,0.00,WeatherDisplay:10.37,2013-03-04 13:27:00,
2013-03-04 08:32:00,34.3,25.6,29.42,SE,135,10.4,10.4,70,0.00,CLR,SCT,0.00,WeatherDisplay:10.37,2013-03-04 13:32:00,
2013-03-04 08:37:00,35.2,26.1,29.41,SW,225,12.7,12.7,69,0.00,CLR,SCT,0.00,WeatherDisplay:10.37,2013-03-04 13:37:00,
2013-03-04 08:42:00,34.9,25.4,29.42,South,180,16.1,16.1,68,0.00,CLR,SCT,0.00,WeatherDisplay:10.37,2013-03-04 13:42:00,
2013-03-04 08:47:00,35.4,26.3,29.42,South,180,8.1,8.1,69,0.00,CLR,SCT,0.00,WeatherDisplay:10.37,2013-03-04 13:47:00,
2013-03-04 08:52:00,35.8,26.2,29.42,South,180,12.7,12.7,68,0.00,CLR,SCT,0.00,WeatherDisplay:10.37,2013-03-04 13:52:00,
2013-03-04 08:57:00,36.0,26.1,29.42,South,180,12.7,12.7,67,0.00,CLR,SCT,0.00,WeatherDisplay:10.37,2013-03-04 13:57:00,
2013-03-04 09:02:00,35.8,26.2,29.41,South,180,16.1,16.1,68,0.00,CLR,SCT,0.00,WeatherDisplay:10.37,2013-03-04 14:02:00,
2013-03-04 09:07:00,35.8,26.2,29.42,SW,225,12.7,12.7,68,0.00,CLR,SCT,0.00,WeatherDisplay:10.37,2013-03-04 14:07:00,
2013-03-04 09:12:00,36.5,26.9,29.41,SW,225,12.7,12.7,68,0.00,CLR,SCT,0.00,WeatherDisplay:10.37,2013-03-04 14:12:00,
2013-03-04 09:17:00,36.7,27.1,29.42,NW,315,11.5,11.5,68,0.00,CLR,SCT,0.00,WeatherDisplay:10.37,2013-03-04 14:17:00,
2013-03-04 09:22:00,37.2,26.9,29.41,SE,135,11.5,11.5,66,0.00,CLR,SCT,0.00,WeatherDisplay:10.37,2013-03-04 14:22:00,
2013-03-04 09:27:00,37.4,26.7,29.41,South,180,15.0,15.0,65,0.00,CLR,SCT,0.00,WeatherDisplay:10.37,2013-03-04 14:27:00,
2013-03-04 09:32:00,37.2,26.5,29.42,SW,225,10.4,10.4,65,0.00,CLR,SCT,0.00,WeatherDisplay:10.37,2013-03-04 14:32:00,
2013-03-04 09:37:00,36.9,26.2,29.41,WSW,248,17.3,17.3,65,0.00,CLR,SCT,0.00,WeatherDisplay:10.37,2013-03-04 14:37:00,
2013-03-04 09:42:00,37.2,26.5,29.41,South,180,10.4,10.4,65,0.00,CLR,SCT,0.00,WeatherDisplay:10.37,2013-03-04 14:42:00,
2013-03-04 09:47:00,37.6,26.5,29.41,SW,225,10.4,10.4,64,0.00,CLR,SCT,0.00,WeatherDisplay:10.37,2013-03-04 14:47:00,
2013-03-04 09:52:00,37.9,26.8,29.40,SW,225,10.4,10.4,64,0.00,CLR,SCT,0.00,WeatherDisplay:10.37,2013-03-04 14:52:00,
2013-03-04 09:57:00,37.9,26.8,29.41,SW,225,12.7,12.7,64,0.00,CLR,SCT,0.00,WeatherDisplay:10.37,2013-03-04 14:57:00,
2013-03-04 10:02:00,37.6,26.5,29.40,SW,225,15.0,15.0,64,0.00,CLR,SCT,0.00,WeatherDisplay:10.37,2013-03-04 15:02:00,
2013-03-04 10:07:00,37.6,26.5,29.40,SW,225,17.3,17.3,64,0.00,CLR,SCT,0.00,WeatherDisplay:10.37,2013-03-04 15:07:00,
2013-03-04 10:12:00,37.9,27.2,29.41,SW,225,10.4,10.4,65,0.00,CLR,SCT,0.00,WeatherDisplay:10.37,2013-03-04 15:12:00,
2013-03-04 10:17:00,38.1,26.6,29.40,South,180,16.1,16.1,63,0.00,CLR,SCT,0.00,WeatherDisplay:10.37,2013-03-04 15:17:00,
2013-03-04 10:22:00,38.3,26.8,29.40,SW,225,12.7,12.7,63,0.00,CLR,SCT,0.00,WeatherDisplay:10.37,2013-03-04 15:22:00,
2013-03-04 10:27:00,37.9,26.8,29.39,SW,225,18.4,18.4,64,0.00,CLR,SCT,0.00,WeatherDisplay:10.37,2013-03-04 15:27:00,
2013-03-04 10:32:00,38.5,27.0,29.40,SW,225,16.1,16.1,63,0.00,CLR,SCT,0.00,WeatherDisplay:10.37,2013-03-04 15:32:00,
2013-03-04 10:37:00,38.8,27.3,29.39,SW,225,10.4,10.4,63,0.00,CLR,SCT,0.00,WeatherDisplay:10.37,2013-03-04 15:37:00,
2013-03-04 10:42:00,39.6,27.6,29.39,South,180,12.7,12.7,62,0.00,CLR,SCT,0.00,WeatherDisplay:10.37,2013-03-04 15:42:00,
2013-03-04 10:47:00,39.4,27.0,29.39,SW,225,17.3,17.3,61,0.00,CLR,SCT,0.00,WeatherDisplay:10.37,2013-03-04 15:47:00,
2013-03-04 10:52:00,39.6,27.6,29.40,SW,225,15.0,15.0,62,0.00,CLR,SCT,0.00,WeatherDisplay:10.37,2013-03-04 15:52:00,
2013-03-04 10:57:00,40.1,27.7,29.40,SW,225,15.0,15.0,61,0.00,CLR,SCT,0.00,WeatherDisplay:10.37,2013-03-04 15:57:00,
2013-03-04 11:02:00,39.9,27.1,29.39,SW,225,16.1,16.1,60,0.00,CLR,SCT,0.00,WeatherDisplay:10.37,2013-03-04 16:02:00,
2013-03-04 11:07:00,39.7,27.0,29.39,SW,225,17.3,17.3,60,0.00,CLR,SCT,0.00,WeatherDisplay:10.37,2013-03-04 16:07:00,
2013-03-04 11:12:00,39.6,27.2,29.39,SW,225,13.8,13.8,61,0.00,CLR,SCT,0.00,WeatherDisplay:10.37,2013-03-04 16:12:00,
2013-03-04 11:17:00,40.3,27.5,29.39,South,180,13.8,13.8,60,0.00,CLR,SCT,0.00,WeatherDisplay:10.37,2013-03-04 16:17:00,
2013-03-04 11:22:00,39.7,27.0,29.39,SW,225,12.7,12.7,60,0.00,CLR,SCT,0.00,WeatherDisplay:10.37,2013-03-04 16:22:00,
2013-03-04 11:27:00,39.7,27.8,29.39,South,180,15.0,15.0,62,0.00,CLR,SCT,0.00,WeatherDisplay:10.37,2013-03-04 16:27:00,
2013-03-04 11:32:00,39.6,27.6,29.39,SW,225,17.3,17.3,62,0.00,CLR,SCT,0.00,WeatherDisplay:10.37,2013-03-04 16:32:00,
2013-03-04 11:37:00,39.9,27.5,29.39,NW,315,17.3,17.3,61,0.00,CLR,SCT,0.00,WeatherDisplay:10.37,2013-03-04 16:37:00,
2013-03-04 11:42:00,39.7,27.4,29.39,WSW,248,15.0,15.0,61,0.00,CLR,SCT,0.00,WeatherDisplay:10.37,2013-03-04 16:42:00,
2013-03-04 11:47:00,39.7,27.8,29.39,SW,225,17.3,17.3,62,0.00,CLR,SCT,0.00,WeatherDisplay:10.37,2013-03-04 16:47:00,
2013-03-04 11:52:00,40.1,28.1,29.39,SW,225,15.0,15.0,62,0.00,CLR,SCT,0.00,WeatherDisplay:10.37,2013-03-04 16:52:00,
2013-03-04 11:57:00,40.1,27.7,29.38,SW,225,17.3,17.3,61,0.00,CLR,SCT,0.00,WeatherDisplay:10.37,2013-03-04 16:57:00,
2013-03-04 12:02:00,39.6,27.2,29.39,West,270,18.4,18.4,61,0.00,CLR,SCT,0.00,WeatherDisplay:10.37,2013-03-04 17:02:00,
2013-03-04 12:07:00,39.6,27.2,29.38,SW,225,15.0,15.0,61,0.00,CLR,SCT,0.00,WeatherDisplay:10.37,2013-03-04 17:07:00,
2013-03-04 12:12:00,40.3,27.9,29.38,SW,225,13.8,13.8,61,0.00,CLR,SCT,0.00,WeatherDisplay:10.37,2013-03-04 17:12:00,
2013-03-04 12:17:00,40.6,27.8,29.38,SW,225,12.7,12.7,60,0.00,CLR,SCT,0.00,WeatherDisplay:10.37,2013-03-04 17:17:00,
2013-03-04 12:22:00,41.0,27.3,29.38,South,180,16.1,16.1,58,0.00,CLR,SCT,0.00,WeatherDisplay:10.37,2013-03-04 17:22:00,
2013-03-04 12:27:00,40.8,27.6,29.38,SW,225,11.5,11.5,59,0.00,CLR,SCT,0.00,WeatherDisplay:10.37,2013-03-04 17:27:00,
2013-03-04 12:32:00,41.0,27.8,29.37,NNW,338,15.0,15.0,59,0.00,CLR,SCT,0.00,WeatherDisplay:10.37,2013-03-04 17:32:00,
2013-03-04 12:37:00,41.7,28.0,29.38,North,0,12.7,12.7,58,0.00,CLR,SCT,0.00,WeatherDisplay:10.37,2013-03-04 17:37:00,
2013-03-04 12:42:00,41.9,27.8,29.37,SSW,202,16.1,16.1,57,0.00,CLR,SCT,0.00,WeatherDisplay:10.37,2013-03-04 17:42:00,
2013-03-04 12:47:00,41.7,27.6,29.37,WSW,248,16.1,16.1,57,0.00,CLR,SCT,0.00,WeatherDisplay:10.37,2013-03-04 17:47:00,
2013-03-04 12:53:00,39.9,27.1,29.37,South,180,18.4,18.4,60,0.00,CLR,SCT,0.00,WeatherDisplay:10.37,2013-03-04 17:53:00,
2013-03-04 12:58:00,41.9,28.2,29.37,SW,225,17.3,17.3,58,0.00,CLR,SCT,0.00,WeatherDisplay:10.37,2013-03-04 17:58:00,
2013-03-04 13:03:00,42.1,27.9,29.37,South,180,17.3,17.3,57,0.00,CLR,SCT,0.00,WeatherDisplay:10.37,2013-03-04 18:03:00,
2013-03-04 13:08:00,41.5,28.3,29.36,SW,225,19.6,19.6,59,0.00,CLR,SCT,0.00,WeatherDisplay:10.37,2013-03-04 18:08:00,
2013-03-04 13:13:00,41.5,28.3,29.37,NNE,22,12.7,12.7,59,0.00,CLR,SCT,0.00,WeatherDisplay:10.37,2013-03-04 18:13:00,
2013-03-04 13:18:00,41.0,28.2,29.36,SW,225,18.4,18.4,60,0.00,CLR,SCT,0.00,WeatherDisplay:10.37,2013-03-04 18:18:00,
2013-03-04 13:23:00,41.2,27.9,29.37,SW,225,15.0,15.0,59,0.00,CLR,SCT,0.00,WeatherDisplay:10.37,2013-03-04 18:23:00,
2013-03-04 13:28:00,40.6,27.4,29.36,South,180,18.4,18.4,59,0.00,CLR,SCT,0.00,WeatherDisplay:10.37,2013-03-04 18:28:00,
2013-03-04 13:30:00,40.3,27.1,29.36,SW,225,15.0,15.0,59,0.00,CLR,SCT,0.00,WeatherDisplay:10.37,2013-03-04 18:30:00,
2013-03-04 13:35:00,40.6,27.8,29.36,SW,225,16.1,16.1,60,0.00,CLR,SCT,0.00,WeatherDisplay:10.37,2013-03-04 18:35:00,
2013-03-04 13:40:00,41.0,27.8,29.36,SW,225,18.4,18.4,59,0.00,CLR,SCT,0.00,WeatherDisplay:10.37,2013-03-04 18:40:00,
2013-03-04 13:45:00,40.8,27.6,29.37,SW,225,15.0,15.0,59,0.00,CLR,SCT,0.00,WeatherDisplay:10.37,2013-03-04 18:45:00,
2013-03-04 13:50:00,40.3,27.5,29.36,SW,225,15.0,15.0,60,0.00,CLR,SCT,0.00,WeatherDisplay:10.37,2013-03-04 18:50:00,
2013-03-04 13:55:00,41.0,28.6,29.37,South,180,10.4,10.4,61,0.00,CLR,SCT,0.00,WeatherDisplay:10.37,2013-03-04 18:55:00,
2013-03-04 14:00:00,40.6,27.4,29.36,SW,225,10.4,10.4,59,0.00,CLR,SCT,0.00,WeatherDisplay:10.37,2013-03-04 19:00:00,
2013-03-04 14:05:00,40.8,27.6,29.37,South,180,15.0,15.0,59,0.00,CLR,SCT,0.00,WeatherDisplay:10.37,2013-03-04 19:05:00,
2013-03-04 14:10:00,40.5,27.7,29.37,WNW,292,15.0,15.0,60,0.00,CLR,SCT,0.00,WeatherDisplay:10.37,2013-03-04 19:10:00,
2013-03-04 14:15:00,40.3,27.5,29.36,SW,225,10.4,10.4,60,0.00,CLR,SCT,0.00,WeatherDisplay:10.37,2013-03-04 19:15:00,
2013-03-04 14:20:00,39.9,27.1,29.37,South,180,16.1,16.1,60,0.00,CLR,SCT,0.00,WeatherDisplay:10.37,2013-03-04 19:20:00,
2013-03-04 14:25:00,39.7,27.4,29.37,SW,225,10.4,10.4,61,0.00,CLR,SCT,0.00,WeatherDisplay:10.37,2013-03-04 19:25:00,
2013-03-04 14:30:00,39.7,27.4,29.37,SE,135,8.1,8.1,61,0.00,CLR,SCT,0.00,WeatherDisplay:10.37,2013-03-04 19:30:00,
2013-03-04 14:35:00,40.3,27.9,29.37,South,180,10.4,10.4,61,0.00,CLR,SCT,0.00,WeatherDisplay:10.37,2013-03-04 19:35:00,
2013-03-04 14:40:00,40.1,27.7,29.37,SW,225,12.7,12.7,61,0.00,CLR,SCT,0.00,WeatherDisplay:10.37,2013-03-04 19:40:00,
2013-03-04 14:45:00,40.5,28.1,29.37,SW,225,12.7,12.7,61,0.00,CLR,SCT,0.00,WeatherDisplay:10.37,2013-03-04 19:45:00,
2013-03-04 14:50:00,40.3,27.9,29.37,SW,225,15.0,15.0,61,0.00,CLR,SCT,0.00,WeatherDisplay:10.37,2013-03-04 19:50:00,
2013-03-04 14:55:00,40.6,28.2,29.37,SW,225,5.8,5.8,61,0.00,CLR,SCT,0.00,WeatherDisplay:10.37,2013-03-04 19:55:00,
2013-03-04 15:00:00,41.0,28.2,29.37,SW,225,12.7,12.7,60,0.00,CLR,SCT,0.00,WeatherDisplay:10.37,2013-03-04 20:00:00,
2013-03-04 15:05:00,41.0,28.2,29.38,South,180,10.4,10.4,60,0.00,CLR,SCT,0.00,WeatherDisplay:10.37,2013-03-04 20:05:00,
2013-03-04 15:10:00,41.0,27.8,29.38,South,180,12.7,12.7,59,0.00,CLR,SCT,0.00,WeatherDisplay:10.37,2013-03-04 20:10:00,
2013-03-04 15:15:00,40.6,28.2,29.38,SE,135,15.0,15.0,61,0.00,CLR,SCT,0.00,WeatherDisplay:10.37,2013-03-04 20:15:00,
2013-03-04 15:20:00,41.2,28.3,29.38,South,180,10.4,10.4,60,0.00,CLR,SCT,0.00,WeatherDisplay:10.37,2013-03-04 20:20:00,
2013-03-04 15:25:00,40.6,27.8,29.38,SW,225,15.0,15.0,60,0.00,CLR,SCT,0.00,WeatherDisplay:10.37,2013-03-04 20:25:00,
2013-03-04 15:30:00,40.5,28.1,29.38,SW,225,15.0,15.0,61,0.00,CLR,SCT,0.00,WeatherDisplay:10.37,2013-03-04 20:30:00,
2013-03-04 15:35:00,40.6,27.8,29.38,South,180,10.4,10.4,60,0.00,CLR,SCT,0.00,WeatherDisplay:10.37,2013-03-04 20:35:00,
2013-03-04 15:40:00,40.6,27.8,29.38,South,180,15.0,15.0,60,0.00,CLR,SCT,0.00,WeatherDisplay:10.37,2013-03-04 20:40:00,
2013-03-04 15:45:00,40.5,27.7,29.38,South,180,12.7,12.7,60,0.00,CLR,SCT,0.00,WeatherDisplay:10.37,2013-03-04 20:45:00,
2013-03-04 15:50:00,40.5,27.7,29.38,South,180,15.0,15.0,60,0.00,CLR,SCT,0.00,WeatherDisplay:10.37,2013-03-04 20:50:00,
2013-03-04 15:55:00,40.3,27.5,29.37,SW,225,15.0,15.0,60,0.00,CLR,SCT,0.00,WeatherDisplay:10.37,2013-03-04 20:55:00,
2013-03-04 16:00:00,40.3,27.9,29.37,West,270,15.0,15.0,61,0.00,CLR,SCT,0.00,WeatherDisplay:10.37,2013-03-04 21:00:00,
2013-03-04 16:05:00,40.6,28.2,29.37,SW,225,8.1,8.1,61,0.00,CLR,SCT,0.00,WeatherDisplay:10.37,2013-03-04 21:05:00,
2013-03-04 16:10:00,40.6,28.2,29.37,SW,225,10.4,10.4,61,0.00,CLR,SCT,0.00,WeatherDisplay:10.37,2013-03-04 21:10:00,
2013-03-04 16:15:00,40.5,27.7,29.37,West,270,13.8,13.8,60,0.00,CLR,SCT,0.00,WeatherDisplay:10.37,2013-03-04 21:15:00,
2013-03-04 16:20:00,40.5,28.1,29.37,SW,225,12.7,12.7,61,0.00,CLR,SCT,0.00,WeatherDisplay:10.37,2013-03-04 21:20:00,
2013-03-04 16:25:00,40.1,27.7,29.38,NW,315,10.4,10.4,61,0.00,CLR,SCT,0.00,WeatherDisplay:10.37,2013-03-04 21:25:00,
2013-03-04 16:30:00,40.1,27.7,29.38,SE,135,9.2,9.2,61,0.00,CLR,SCT,0.00,WeatherDisplay:10.37,2013-03-04 21:30:00,
2013-03-04 16:35:00,39.7,27.4,29.38,SW,225,15.0,15.0,61,0.00,CLR,SCT,0.00,WeatherDisplay:10.37,2013-03-04 21:35:00,
2013-03-04 16:40:00,39.6,27.2,29.38,SE,135,15.0,15.0,61,0.00,CLR,SCT,0.00,WeatherDisplay:10.37,2013-03-04 21:40:00,
2013-03-04 16:45:00,39.6,27.6,29.38,South,180,13.0,13.0,62,0.00,CLR,SCT,0.00,WeatherDisplay:10.37,2013-03-04 21:45:00,
2013-03-04 16:50:00,39.6,27.6,29.39,South,180,12.7,12.7,62,0.00,CLR,SCT,0.00,WeatherDisplay:10.37,2013-03-04 21:50:00,
2013-03-04 16:55:00,40.1,27.7,29.39,SE,135,12.7,12.7,61,0.00,CLR,SCT,0.00,WeatherDisplay:10.37,2013-03-04 21:55:00,
2013-03-04 17:01:00,39.9,27.5,29.39,SW,225,8.1,8.1,61,0.00,CLR,SCT,0.00,WeatherDisplay:10.37,2013-03-04 22:01:00,
2013-03-04 17:06:00,39.7,28.2,29.39,SW,225,9.2,9.2,63,0.00,CLR,SCT,0.00,WeatherDisplay:10.37,2013-03-04 22:06:00,
2013-03-04 17:11:00,39.6,27.6,29.39,South,180,15.0,15.0,62,0.00,CLR,SCT,0.00,WeatherDisplay:10.37,2013-03-04 22:11:00,
2013-03-04 17:16:00,39.4,27.4,29.39,SSW,202,9.2,9.2,62,0.00,CLR,SCT,0.00,WeatherDisplay:10.37,2013-03-04 22:16:00,
2013-03-04 17:21:00,39.2,27.7,29.40,South,180,10.4,10.4,63,0.00,CLR,SCT,0.00,WeatherDisplay:10.37,2013-03-04 22:21:00,
2013-03-04 17:26:00,38.8,27.3,29.40,South,180,13.8,13.8,63,0.00,CLR,SCT,0.00,WeatherDisplay:10.37,2013-03-04 22:26:00,
2013-03-04 17:31:00,38.8,27.7,29.40,South,180,10.4,10.4,64,0.00,CLR,SCT,0.00,WeatherDisplay:10.37,2013-03-04 22:31:00,
2013-03-04 17:36:00,38.7,27.5,29.40,SW,225,15.0,15.0,64,0.00,CLR,SCT,0.00,WeatherDisplay:10.37,2013-03-04 22:36:00,
2013-03-04 17:41:00,38.7,27.5,29.40,SW,225,10.4,10.4,64,0.00,CLR,SCT,0.00,WeatherDisplay:10.37,2013-03-04 22:41:00,
2013-03-04 17:46:00,38.7,27.5,29.41,SW,225,10.4,10.4,64,0.00,CLR,SCT,0.00,WeatherDisplay:10.37,2013-03-04 22:46:00,
2013-03-04 17:51:00,38.3,27.2,29.41,SE,135,8.1,8.1,64,0.00,CLR,SCT,0.00,WeatherDisplay:10.37,2013-03-04 22:51:00,
2013-03-04 17:56:00,38.1,27.0,29.41,South,180,11.5,11.5,64,0.00,CLR,SCT,0.00,WeatherDisplay:10.37,2013-03-04 22:56:00,
2013-03-04 18:01:00,37.9,27.2,29.41,NE,45,12.7,12.7,65,0.00,CLR,SCT,0.00,WeatherDisplay:10.37,2013-03-04 23:01:00,
2013-03-04 18:06:00,37.9,27.2,29.41,NE,45,12.7,12.7,65,0.00,CLR,SCT,0.00,WeatherDisplay:10.37,2013-03-04 23:06:00,
2013-03-04 18:11:00,37.8,26.7,29.42,South,180,15.0,15.0,64,0.00,CLR,SCT,0.00,WeatherDisplay:10.37,2013-03-04 23:11:00,
2013-03-04 18:16:00,37.8,26.7,29.42,South,180,9.2,9.2,64,0.00,CLR,SCT,0.00,WeatherDisplay:10.37,2013-03-04 23:16:00,
2013-03-04 18:21:00,37.8,27.0,29.43,SW,225,9.2,9.2,65,0.00,CLR,SCT,0.00,WeatherDisplay:10.37,2013-03-04 23:21:00,
2013-03-04 18:26:00,37.6,26.5,29.42,SW,225,15.0,15.0,64,0.00,CLR,SCT,0.00,WeatherDisplay:10.37,2013-03-04 23:26:00,
2013-03-04 18:31:00,37.6,26.5,29.43,South,180,20.7,20.7,64,0.00,CLR,SCT,0.00,WeatherDisplay:10.37,2013-03-04 23:31:00,
2013-03-04 18:36:00,37.4,26.7,29.43,NW,315,15.0,15.0,65,0.00,CLR,SCT,0.00,WeatherDisplay:10.37,2013-03-04 23:36:00,
2013-03-04 18:41:00,37.2,26.5,29.43,SW,225,12.7,12.7,65,0.00,CLR,SCT,0.00,WeatherDisplay:10.37,2013-03-04 23:41:00,
2013-03-04 18:46:00,37.2,26.5,29.43,SW,225,10.4,10.4,65,0.00,CLR,SCT,0.00,WeatherDisplay:10.37,2013-03-04 23:46:00,
2013-03-04 18:51:00,37.2,26.5,29.43,North,10,10.4,10.4,65,0.00,CLR,SCT,0.00,WeatherDisplay:10.37,2013-03-04 23:51:00,
2013-03-04 18:56:00,37.2,26.5,29.43,North,0,10.4,10.4,65,0.00,CLR,SCT,0.00,WeatherDisplay:10.37,2013-03-04 23:56:00,
2013-03-04 19:01:00,36.7,26.4,29.44,South,180,12.7,12.7,66,0.00,CLR,SCT,0.00,WeatherDisplay:10.37,2013-03-05 00:01:00,
2013-03-04 19:06:00,36.5,26.6,29.44,SW,225,17.3,17.3,67,0.00,CLR,SCT,0.00,WeatherDisplay:10.37,2013-03-05 00:06:00,
2013-03-04 19:11:00,36.3,26.4,29.44,South,180,17.3,17.3,67,0.00,CLR,SCT,0.00,WeatherDisplay:10.37,2013-03-05 00:11:00,
2013-03-04 19:16:00,36.0,26.4,29.45,SW,225,20.7,20.7,68,0.00,CLR,SCT,0.00,WeatherDisplay:10.37,2013-03-05 00:16:00,
2013-03-04 19:21:00,36.0,26.4,29.45,SW,225,10.4,10.4,68,0.00,CLR,SCT,0.00,WeatherDisplay:10.37,2013-03-05 00:21:00,
2013-03-04 19:26:00,35.8,26.2,29.46,South,180,12.7,12.7,68,0.00,CLR,SCT,0.00,WeatherDisplay:10.37,2013-03-05 00:26:00,
2013-03-04 19:31:00,35.8,26.6,29.45,SE,135,12.7,12.7,69,0.00,CLR,SCT,0.00,WeatherDisplay:10.37,2013-03-05 00:31:00,
2013-03-04 19:36:00,35.8,26.2,29.46,SW,225,15.0,15.0,68,0.00,CLR,SCT,0.00,WeatherDisplay:10.37,2013-03-05 00:36:00,
2013-03-04 19:41:00,35.6,26.1,29.45,SSW,202,17.3,17.3,68,0.00,CLR,SCT,0.00,WeatherDisplay:10.37,2013-03-05 00:41:00,
2013-03-04 19:46:00,35.6,26.4,29.46,SW,225,8.1,8.1,69,0.00,CLR,SCT,0.00,WeatherDisplay:10.37,2013-03-05 00:46:00,
2013-03-04 19:51:00,35.6,26.4,29.47,SW,225,16.1,16.1,69,0.00,CLR,SCT,0.00,WeatherDisplay:10.37,2013-03-05 00:51:00,
2013-03-04 19:56:00,35.6,26.4,29.46,SE,135,10.4,10.4,69,0.00,CLR,SCT,0.00,WeatherDisplay:10.37,2013-03-05 00:56:00,
2013-03-04 20:01:00,35.4,26.3,29.46,South,180,15.0,15.0,69,0.00,CLR,SCT,0.00,WeatherDisplay:10.37,2013-03-05 01:01:00,
2013-03-04 20:06:00,35.2,26.1,29.46,South,180,12.7,12.7,69,0.00,CLR,SCT,0.00,WeatherDisplay:10.37,2013-03-05 01:06:00,
2013-03-04 20:11:00,35.2,26.4,29.47,SW,225,8.1,8.1,70,0.00,CLR,SCT,0.00,WeatherDisplay:10.37,2013-03-05 01:11:00,
2013-03-04 20:16:00,35.2,26.4,29.46,SW,225,9.2,9.2,70,0.00,CLR,SCT,0.00,WeatherDisplay:10.37,2013-03-05 01:16:00,
2013-03-04 20:21:00,35.2,26.4,29.47,SW,225,11.5,11.5,70,0.00,CLR,SCT,0.00,WeatherDisplay:10.37,2013-03-05 01:21:00,
2013-03-04 20:26:00,35.2,26.4,29.47,West,270,8.1,8.1,70,0.00,CLR,SCT,0.00,WeatherDisplay:10.37,2013-03-05 01:26:00,
2013-03-04 20:31:00,35.1,25.9,29.47,SW,225,11.5,11.5,69,0.00,CLR,SCT,0.00,WeatherDisplay:10.37,2013-03-05 01:31:00,
2013-03-04 20:36:00,35.1,26.3,29.47,SW,225,11.5,11.5,70,0.00,CLR,SCT,0.00,WeatherDisplay:10.37,2013-03-05 01:36:00,
2013-03-04 20:41:00,35.1,26.3,29.47,SW,225,8.1,8.1,70,0.00,CLR,SCT,0.00,WeatherDisplay:10.37,2013-03-05 01:41:00,
2013-03-04 20:46:00,35.1,26.3,29.47,West,270,5.8,5.8,70,0.00,CLR,SCT,0.00,WeatherDisplay:10.37,2013-03-05 01:46:00,
2013-03-04 20:51:00,34.9,26.1,29.47,SE,135,8.1,8.1,70,0.00,CLR,SCT,0.00,WeatherDisplay:10.37,2013-03-05 01:51:00,
2013-03-04 20:56:00,34.9,26.1,29.47,North,0,12.7,12.7,70,0.00,CLR,SCT,0.00,WeatherDisplay:10.37,2013-03-05 01:56:00,
2013-03-04 21:01:00,34.9,26.1,29.47,South,180,11.5,11.5,70,0.00,CLR,SCT,0.00,WeatherDisplay:10.37,2013-03-05 02:01:00,
2013-03-04 21:06:00,34.7,26.3,29.47,SW,225,8.1,8.1,71,0.00,CLR,SCT,0.00,WeatherDisplay:10.37,2013-03-05 02:06:00,
2013-03-04 21:11:00,34.7,26.3,29.47,SW,225,8.1,8.1,71,0.00,CLR,SCT,0.00,WeatherDisplay:10.37,2013-03-05 02:11:00,
2013-03-04 21:16:00,34.7,26.3,29.47,SW,225,10.4,10.4,71,0.00,CLR,SCT,0.00,WeatherDisplay:10.37,2013-03-05 02:16:00,
2013-03-04 21:21:00,34.5,26.1,29.48,South,180,9.2,9.2,71,0.00,CLR,SCT,0.00,WeatherDisplay:10.37,2013-03-05 02:21:00,
2013-03-04 21:26:00,34.5,26.1,29.48,South,180,6.9,6.9,71,0.00,CLR,SCT,0.00,WeatherDisplay:10.37,2013-03-05 02:26:00,
2013-03-04 21:31:00,34.5,26.1,29.48,SW,225,10.4,10.4,71,0.00,CLR,SCT,0.00,WeatherDisplay:10.37,2013-03-05 02:31:00,
2013-03-04 21:36:00,34.3,26.2,29.49,SW,225,10.4,10.4,72,0.00,CLR,SCT,0.00,WeatherDisplay:10.37,2013-03-05 02:36:00,
2013-03-04 21:41:00,34.3,26.2,29.48,South,180,8.1,8.1,72,0.00,CLR,SCT,0.00,WeatherDisplay:10.37,2013-03-05 02:41:00,
2013-03-04 21:46:00,34.5,26.4,29.49,SW,225,8.1,8.1,72,0.00,CLR,SCT,0.00,WeatherDisplay:10.37,2013-03-05 02:46:00,
2013-03-04 21:52:00,34.5,26.4,29.49,SW,225,6.9,6.9,72,0.00,CLR,SCT,0.00,WeatherDisplay:10.37,2013-03-05 02:52:00,
2013-03-04 21:57:00,34.3,26.2,29.49,SW,225,6.9,6.9,72,0.00,CLR,SCT,0.00,WeatherDisplay:10.37,2013-03-05 02:57:00,
2013-03-04 22:02:00,34.3,26.2,29.49,SW,225,8.1,8.1,72,0.00,CLR,SCT,0.00,WeatherDisplay:10.37,2013-03-05 03:02:00,
2013-03-04 22:07:00,34.3,26.6,29.49,South,180,6.9,6.9,73,0.00,CLR,SCT,0.00,WeatherDisplay:10.37,2013-03-05 03:07:00,
2013-03-04 22:12:00,34.3,26.6,29.50,NW,315,5.8,5.8,73,0.00,CLR,SCT,0.00,WeatherDisplay:10.37,2013-03-05 03:12:00,
2013-03-04 22:17:00,34.3,26.6,29.50,West,270,10.4,10.4,73,0.00,CLR,SCT,0.00,WeatherDisplay:10.37,2013-03-05 03:17:00,
2013-03-04 22:22:00,34.3,26.6,29.50,SW,225,4.6,4.6,73,0.00,CLR,SCT,0.00,WeatherDisplay:10.37,2013-03-05 03:22:00,
2013-03-04 22:27:00,34.3,26.9,29.50,WNW,292,10.4,10.4,74,0.00,CLR,SCT,0.00,WeatherDisplay:10.37,2013-03-05 03:27:00,
2013-03-04 22:32:00,34.5,27.1,29.50,NNE,22,10.4,10.4,74,0.00,CLR,SCT,0.00,WeatherDisplay:10.37,2013-03-05 03:32:00,
2013-03-04 22:37:00,34.5,27.4,29.50,West,270,10.4,10.4,75,0.00,CLR,SCT,0.00,WeatherDisplay:10.37,2013-03-05 03:37:00,
2013-03-04 22:42:00,34.3,27.6,29.50,NW,315,12.7,12.7,76,0.00,CLR,SCT,0.00,WeatherDisplay:10.37,2013-03-05 03:42:00,
2013-03-04 22:47:00,34.3,27.6,29.50,SW,225,13.8,13.8,76,0.00,CLR,SCT,0.00,WeatherDisplay:10.37,2013-03-05 03:47:00,
2013-03-04 22:52:00,34.3,27.9,29.50,West,270,10.4,10.4,77,0.00,CLR,SCT,0.00,WeatherDisplay:10.37,2013-03-05 03:52:00,
2013-03-04 22:57:00,34.3,27.9,29.51,NNW,338,8.1,8.1,77,0.00,CLR,SCT,0.00,WeatherDisplay:10.37,2013-03-05 03:57:00,
2013-03-04 23:02:00,34.2,27.7,29.50,SE,135,9.2,9.2,77,0.00,CLR,SCT,0.00,WeatherDisplay:10.37,2013-03-05 04:02:00,
2013-03-04 23:07:00,34.3,27.9,29.51,SE,135,8.1,8.1,77,0.00,CLR,SCT,0.00,WeatherDisplay:10.37,2013-03-05 04:07:00,
2013-03-04 23:12:00,34.2,27.7,29.50,NE,45,6.9,6.9,77,0.00,CLR,SCT,0.00,WeatherDisplay:10.37,2013-03-05 04:12:00,
2013-03-04 23:17:00,34.2,27.7,29.51,SSW,202,12.7,12.7,77,0.00,CLR,SCT,0.00,WeatherDisplay:10.37,2013-03-05 04:17:00,
2013-03-04 23:22:00,34.2,27.7,29.51,SW,225,4.6,4.6,77,0.00,CLR,SCT,0.00,WeatherDisplay:10.37,2013-03-05 04:22:00,
2013-03-04 23:27:00,34.2,27.7,29.51,South,180,12.7,12.7,77,0.00,CLR,SCT,0.00,WeatherDisplay:10.37,2013-03-05 04:27:00,
2013-03-04 23:32:00,34.2,27.7,29.51,SE,135,8.1,8.1,77,0.00,CLR,SCT,0.00,WeatherDisplay:10.37,2013-03-05 04:32:00,
2013-03-04 23:37:00,34.2,27.7,29.51,South,180,11.5,11.5,77,0.00,CLR,SCT,0.00,WeatherDisplay:10.37,2013-03-05 04:37:00,
2013-03-04 23:42:00,34.2,27.7,29.51,NW,315,10.4,10.4,77,0.00,CLR,SCT,0.00,WeatherDisplay:10.37,2013-03-05 04:42:00,
2013-03-04 23:47:00,34.2,27.7,29.51,SW,225,11.5,11.5,77,0.00,CLR,SCT,0.00,WeatherDisplay:10.37,2013-03-05 04:47:00,
2013-03-04 23:52:00,34.2,27.7,29.52,West,270,5.8,5.8,77,0.00,CLR,SCT,0.00,WeatherDisplay:10.37,2013-03-05 04:52:00,
2013-03-04 23:57:00,34.2,27.4,29.52,West,270,9.2,9.2,76,0.00,CLR,SCT,0.00,WeatherDisplay:10.37,2013-03-05 04:57:00,